createdAt,value
2023-02-14T00:00:22.609Z,97527.84
2023-02-14T00:02:49.450Z,97530.41
2023-02-14T00:05:16.123Z,97519.25
2023-02-14T00:07:42.552Z,97512.41
2023-02-14T00:10:09.881Z,97510.69
2023-02-14T00:12:36.268Z,97520.34
2023-02-14T00:15:21.329Z,97546.38
2023-02-14T00:17:48.834Z,97559.41
2023-02-14T00:20:15.208Z,97555.13
2023-02-14T00:22:41.589Z,97561.19
2023-02-14T00:25:08.202Z,97566.50
2023-02-14T00:27:34.571Z,97569.09
2023-02-14T00:30:02.516Z,97546.63
2023-02-14T00:32:29.907Z,97537.06
2023-02-14T00:34:56.445Z,97525.16
2023-02-14T00:37:23.062Z,97523.38
2023-02-14T00:39:49.573Z,97498.28
2023-02-14T00:42:16.312Z,97467.22
2023-02-14T00:44:42.665Z,97449.91
2023-02-14T00:47:09.205Z,97448.25
2023-02-14T00:49:35.614Z,97437.94
2023-02-14T00:52:02.173Z,97420.63
2023-02-14T00:54:28.520Z,97418.03
2023-02-14T00:56:55.029Z,97413.78
2023-02-14T00:59:21.369Z,97396.38
2023-02-14T01:01:47.883Z,97375.75
2023-02-14T01:04:14.293Z,97389.66
2023-02-14T01:06:40.635Z,97394.00
2023-02-14T01:09:07.164Z,97401.81
2023-02-14T01:11:33.524Z,97393.16
2023-02-14T01:14:00.177Z,97372.41
2023-02-14T01:16:27.286Z,97351.66
2023-02-14T01:18:53.923Z,97320.47
2023-02-14T01:21:25.291Z,97301.31
2023-02-14T01:23:54.205Z,97271.03
2023-02-14T01:26:21.073Z,97258.06
2023-02-14T01:28:47.627Z,97228.66
2023-02-14T01:31:18.385Z,97201.00
2023-02-14T01:33:45.682Z,97171.56
2023-02-14T01:36:32.371Z,97147.28
2023-02-14T01:39:00.669Z,97131.69
2023-02-14T01:41:28.390Z,97112.69
2023-02-14T01:44:14.005Z,97111.03
2023-02-14T01:46:41.201Z,97111.16
2023-02-14T01:49:11.234Z,97131.94
2023-02-14T01:51:38.707Z,97142.34
2023-02-14T01:54:06.271Z,97156.38
2023-02-14T01:56:38.148Z,97170.34
2023-02-14T01:59:05.856Z,97205.06
2023-02-14T02:01:32.380Z,97222.50
2023-02-14T02:04:01.380Z,97248.56
2023-02-14T02:06:48.605Z,97275.47
2023-02-14T02:09:42.272Z,97292.06
2023-02-14T02:12:08.886Z,97321.59
2023-02-14T02:14:35.237Z,97346.69
2023-02-14T02:17:16.927Z,97351.00
2023-02-14T02:20:20.566Z,97356.28
2023-02-14T02:23:05.370Z,97359.81
2023-02-14T02:25:50.730Z,97344.28
2023-02-14T02:28:26.202Z,97359.88
2023-02-14T02:31:12.780Z,97374.66
2023-02-14T02:34:01.202Z,97383.47
2023-02-14T02:36:36.971Z,97406.81
2023-02-14T02:39:06.272Z,97419.75
2023-02-14T02:41:49.069Z,97419.00
2023-02-14T02:44:15.394Z,97422.41
2023-02-14T02:47:04.222Z,97410.41
2023-02-14T02:49:55.173Z,97399.19
2023-02-14T02:53:06.174Z,97394.94
2023-02-14T02:56:22.446Z,97391.72
2023-02-14T02:59:02.831Z,97407.31
2023-02-14T03:01:34.594Z,97393.44
2023-02-14T03:04:21.895Z,97407.41
2023-02-14T03:06:48.401Z,97406.47
2023-02-14T03:09:20.956Z,97388.50
2023-02-14T03:11:57.358Z,97397.25
2023-02-14T03:14:32.513Z,97410.19
2023-02-14T03:17:06.221Z,97427.47
2023-02-14T03:20:11.111Z,97419.91
2023-02-14T03:22:40.636Z,97428.53
2023-02-14T03:25:17.101Z,97437.19
2023-02-14T03:28:20.327Z,97430.31
2023-02-14T03:31:15.908Z,97435.47
2023-02-14T03:33:57.263Z,97453.69
2023-02-14T03:36:35.261Z,97469.22
2023-02-14T03:39:24.192Z,97466.75
2023-02-14T03:41:53.439Z,97466.88
2023-02-14T03:44:21.119Z,97459.91
2023-02-14T03:46:51.584Z,97457.34
2023-02-14T03:49:20.562Z,97448.72
2023-02-14T03:51:48.623Z,97453.09
2023-02-14T03:54:15.016Z,97441.84
2023-02-14T03:57:07.337Z,97434.16
2023-02-14T03:59:33.864Z,97446.28
2023-02-14T04:02:08.854Z,97439.31
2023-02-14T04:04:37.601Z,97435.13
2023-02-14T04:07:17.747Z,97449.75
2023-02-14T04:09:44.474Z,97453.19
2023-02-14T04:12:10.916Z,97468.06
2023-02-14T04:14:37.410Z,97468.91
2023-02-14T04:17:22.523Z,97459.44
2023-02-14T04:19:48.869Z,97441.47
2023-02-14T04:22:15.456Z,97431.94
2023-02-14T04:24:42.010Z,97435.41
2023-02-14T04:27:11.206Z,97429.34
2023-02-14T04:29:45.805Z,97415.72
2023-02-14T04:32:14.324Z,97408.00
2023-02-14T04:34:40.857Z,97413.91
2023-02-14T04:37:07.548Z,97408.03
2023-02-14T04:39:34.007Z,97426.13
2023-02-14T04:42:00.384Z,97414.03
2023-02-14T04:44:27.047Z,97409.81
2023-02-14T04:46:53.510Z,97396.78
2023-02-14T04:49:20.001Z,97403.75
2023-02-14T04:51:46.446Z,97416.78
2023-02-14T04:54:12.821Z,97426.22
2023-02-14T04:56:39.171Z,97423.66
2023-02-14T04:59:05.806Z,97429.72
2023-02-14T05:01:32.192Z,97415.94
2023-02-14T05:03:58.718Z,97422.03
2023-02-14T05:06:25.180Z,97428.03
2023-02-14T05:08:51.816Z,97426.22
2023-02-14T05:11:18.192Z,97436.78
2023-02-14T05:13:44.744Z,97429.03
2023-02-14T05:16:11.140Z,97422.13
2023-02-14T05:18:37.529Z,97411.81
2023-02-14T05:21:04.220Z,97407.53
2023-02-14T05:23:30.603Z,97397.25
2023-02-14T05:25:57.157Z,97395.56
2023-02-14T05:28:23.514Z,97407.03
2023-02-14T05:30:50.810Z,97349.09
2023-02-14T05:33:17.228Z,97291.34
2023-02-14T05:35:43.761Z,97230.31
2023-02-14T05:38:10.256Z,97177.06
2023-02-14T05:40:36.627Z,97118.47
2023-02-14T05:43:02.961Z,97085.88
2023-02-14T05:45:29.491Z,97047.56
2023-02-14T05:47:55.832Z,96981.31
2023-02-14T05:50:22.200Z,96938.44
2023-02-14T05:52:48.726Z,96884.28
2023-02-14T05:55:15.096Z,96838.59
2023-02-14T05:57:42.072Z,96796.25
2023-02-14T06:00:09.257Z,96747.09
2023-02-14T06:02:35.674Z,96696.25
2023-02-14T06:05:02.030Z,96674.72
2023-02-14T06:07:28.420Z,96655.72
2023-02-14T06:09:54.769Z,96654.03
2023-02-14T06:12:21.215Z,96641.91
2023-02-14T06:14:47.556Z,96627.28
2023-02-14T06:17:13.910Z,96617.66
2023-02-14T06:19:40.303Z,96598.53
2023-02-14T06:22:06.654Z,96552.94
2023-02-14T06:24:33.037Z,96491.81
2023-02-14T06:26:59.897Z,96500.97
2023-02-14T06:29:26.433Z,96473.56
2023-02-14T06:31:52.891Z,96414.88
2023-02-14T06:34:19.513Z,96351.38
2023-02-14T06:36:45.868Z,96307.25
2023-02-14T06:39:12.236Z,96259.94
2023-02-14T06:41:38.609Z,96237.59
2023-02-14T06:44:05.204Z,96184.28
2023-02-14T06:46:31.617Z,96095.59
2023-02-14T06:48:58.039Z,96047.25
2023-02-14T06:51:24.713Z,96002.34
2023-02-14T06:53:51.143Z,95968.94
2023-02-14T06:56:17.691Z,95934.91
2023-02-14T06:58:44.095Z,95895.13
2023-02-14T07:01:10.737Z,95834.66
2023-02-14T07:03:37.152Z,95812.69
2023-02-14T07:06:03.837Z,95773.00
2023-02-14T07:08:30.176Z,95729.59
2023-02-14T07:10:57.934Z,95673.66
2023-02-14T07:13:24.786Z,95614.13
2023-02-14T07:15:51.273Z,95574.34
2023-02-14T07:18:17.630Z,95539.88
2023-02-14T07:20:44.956Z,95521.16
2023-02-14T07:23:11.573Z,95481.13
2023-02-14T07:25:37.945Z,95434.50
2023-02-14T07:28:04.764Z,95419.84
2023-02-14T07:30:31.543Z,95393.97
2023-02-14T07:32:58.078Z,95377.78
2023-02-14T07:35:24.434Z,95350.97
2023-02-14T07:37:51.088Z,95327.66
2023-02-14T07:40:17.628Z,95295.56
2023-02-14T07:42:43.995Z,95271.88
2023-02-14T07:45:21.276Z,95274.94
2023-02-14T07:47:49.846Z,95260.41
2023-02-14T07:50:16.593Z,95224.66
2023-02-14T07:52:42.967Z,95217.63
2023-02-14T07:55:09.497Z,95213.53
2023-02-14T07:57:36.076Z,95187.25
2023-02-14T08:00:03.822Z,95175.19
2023-02-14T08:02:30.192Z,95161.25
2023-02-14T08:04:56.786Z,95156.09
2023-02-14T08:07:23.173Z,95175.31
2023-02-14T08:09:49.534Z,95162.06
2023-02-14T08:12:34.288Z,95158.44
2023-02-14T08:15:20.650Z,95133.91
2023-02-14T08:17:47.185Z,95121.59
2023-02-14T08:20:13.554Z,95137.97
2023-02-14T08:22:39.911Z,95132.59
2023-02-14T08:25:06.546Z,95124.34
2023-02-14T08:27:32.919Z,95109.59
2023-02-14T08:29:59.310Z,95089.28
2023-02-14T08:32:25.796Z,95110.44
2023-02-14T08:34:52.294Z,95125.06
2023-02-14T08:37:18.629Z,95122.94
2023-02-14T08:39:45.074Z,95118.94
2023-02-14T08:42:12.802Z,95121.97
2023-02-14T08:44:39.157Z,95112.19
2023-02-14T08:47:05.865Z,95112.53
2023-02-14T08:49:32.239Z,95117.19
2023-02-14T08:51:58.732Z,95085.44
2023-02-14T08:54:25.325Z,95061.22
2023-02-14T08:56:51.703Z,95037.75
2023-02-14T08:59:18.059Z,95009.66
2023-02-14T09:01:44.592Z,94998.13
2023-02-14T09:04:11.091Z,94999.22
2023-02-14T09:06:38.823Z,95021.78
2023-02-14T09:09:06.447Z,95040.53
2023-02-14T09:11:32.866Z,95061.22
2023-02-14T09:13:59.296Z,95065.03
2023-02-14T09:16:26.275Z,95063.47
2023-02-14T09:18:53.122Z,95066.72
2023-02-14T09:21:22.663Z,95069.97
2023-02-14T09:23:49.209Z,95047.19
2023-02-14T09:26:16.170Z,95051.28
2023-02-14T09:28:42.617Z,95059.44
2023-02-14T09:31:16.870Z,95065.03
2023-02-14T09:33:44.396Z,95066.53
2023-02-14T09:36:29.125Z,95097.00
2023-02-14T09:38:55.476Z,95116.88
2023-02-14T09:41:30.981Z,95132.94
2023-02-14T09:44:10.965Z,95145.47
2023-02-14T09:46:41.605Z,95120.75
2023-02-14T09:49:10.989Z,95099.00
2023-02-14T09:51:44.625Z,95062.00
2023-02-14T09:54:21.993Z,95045.25
2023-02-14T09:57:03.046Z,95041.31
2023-02-14T09:59:31.006Z,95022.25
2023-02-14T10:01:59.545Z,95016.53
2023-02-14T10:04:32.042Z,95021.41
2023-02-14T10:07:20.256Z,95015.41
2023-02-14T10:09:49.610Z,95028.09
2023-02-14T10:12:25.208Z,95023.03
2023-02-14T10:14:52.966Z,95038.31
2023-02-14T10:17:29.951Z,95055.47
2023-02-14T10:19:58.171Z,95093.75
2023-02-14T10:22:41.087Z,95099.59
2023-02-14T10:25:23.033Z,95110.91
2023-02-14T10:27:49.771Z,95166.91
2023-02-14T10:30:17.170Z,95230.88
2023-02-14T10:33:04.713Z,95265.88
2023-02-14T10:35:49.931Z,95310.34
2023-02-14T10:38:25.577Z,95326.16
2023-02-14T10:41:03.858Z,95325.22
2023-02-14T10:43:36.538Z,95314.75
2023-02-14T10:46:24.960Z,95325.94
2023-02-14T10:49:23.640Z,95389.78
2023-02-14T10:51:57.581Z,95430.16
2023-02-14T10:55:05.654Z,95434.00
2023-02-14T10:57:34.257Z,95429.13
2023-02-14T11:00:02.233Z,95412.22
2023-02-14T11:02:42.615Z,95418.50
2023-02-14T11:05:20.898Z,95465.88
2023-02-14T11:07:48.335Z,95529.13
2023-02-14T11:10:14.710Z,95593.59
2023-02-14T11:12:41.597Z,95662.94
2023-02-14T11:15:14.119Z,95695.78
2023-02-14T11:17:41.027Z,95736.66
2023-02-14T11:20:30.237Z,95758.44
2023-02-14T11:22:56.981Z,95768.59
2023-02-14T11:25:28.338Z,95814.56
2023-02-14T11:28:01.875Z,95860.00
2023-02-14T11:30:31.392Z,95949.50
2023-02-14T11:32:57.880Z,96052.91
2023-02-14T11:35:27.669Z,96139.94
2023-02-14T11:37:55.596Z,96181.13
2023-02-14T11:40:38.464Z,96214.69
2023-02-14T11:43:14.230Z,96236.38
2023-02-14T11:45:42.519Z,96239.78
2023-02-14T11:48:16.179Z,96251.19
2023-02-14T11:50:45.494Z,96267.25
2023-02-14T11:53:12.495Z,96328.81
2023-02-14T11:55:38.903Z,96385.31
2023-02-14T11:58:05.931Z,96443.13
2023-02-14T12:00:32.532Z,96536.47
2023-02-14T12:02:59.926Z,96581.03
2023-02-14T12:05:27.493Z,96634.88
2023-02-14T12:07:58.922Z,96732.72
2023-02-14T12:10:32.477Z,96784.38
2023-02-14T12:13:03.611Z,96795.28
2023-02-14T12:15:37.737Z,96849.56
2023-02-14T12:18:28.777Z,96920.16
2023-02-14T12:21:03.929Z,96948.91
2023-02-14T12:23:33.457Z,97015.75
2023-02-14T12:26:06.446Z,97088.81
2023-02-14T12:28:39.355Z,97182.25
2023-02-14T12:31:11.537Z,97213.59
2023-02-14T12:33:39.653Z,97302.78
2023-02-14T12:36:30.892Z,97377.28
2023-02-14T12:39:10.110Z,97407.34
2023-02-14T12:41:40.963Z,97462.47
2023-02-14T12:44:08.372Z,97529.72
2023-02-14T12:46:53.677Z,97552.91
2023-02-14T12:49:47.552Z,97628.91
2023-02-14T12:52:49.793Z,97548.91
2023-02-14T12:55:38.929Z,97509.00
2023-02-14T12:58:30.518Z,97557.59
2023-02-14T13:01:28.683Z,97572.41
2023-02-14T13:04:29.923Z,97626.84
2023-02-14T13:07:14.632Z,97613.03
2023-02-14T13:10:02.512Z,97589.81
2023-02-14T13:12:38.424Z,97586.66
2023-02-14T13:15:39.148Z,97569.69
2023-02-14T13:18:15.722Z,97512.16
2023-02-14T13:20:52.374Z,97549.09
2023-02-14T13:23:22.970Z,97586.72
2023-02-14T13:26:06.652Z,97543.41
2023-02-14T13:28:33.053Z,97550.88
2023-02-14T13:31:00.050Z,97544.00
2023-02-14T13:33:38.262Z,97557.53
2023-02-14T13:36:08.817Z,97530.94
2023-02-14T13:38:45.203Z,97470.06
2023-02-14T13:41:11.845Z,97421.75
2023-02-14T13:43:51.485Z,97392.50
2023-02-14T13:46:22.435Z,97383.91
2023-02-14T13:49:00.488Z,97353.72
2023-02-14T13:51:46.548Z,97307.22
2023-02-14T13:54:29.563Z,97272.63
2023-02-14T13:56:56.172Z,97270.25
2023-02-14T13:59:30.324Z,97266.09
2023-02-14T14:02:00.700Z,97247.41
2023-02-14T14:04:31.605Z,97274.56
2023-02-14T14:07:01.201Z,97336.81
2023-02-14T14:09:42.789Z,97340.06
2023-02-14T14:12:27.267Z,97349.19
2023-02-14T14:15:05.896Z,97355.31
2023-02-14T14:17:35.188Z,97355.81
2023-02-14T14:20:02.633Z,97402.38
2023-02-14T14:22:29.074Z,97386.13
2023-02-14T14:25:00.982Z,97370.47
2023-02-14T14:27:30.808Z,97351.06
2023-02-14T14:30:27.165Z,97377.69
2023-02-14T14:32:53.586Z,97309.56
2023-02-14T14:35:23.638Z,97321.94
2023-02-14T14:37:56.765Z,97291.25
2023-02-14T14:40:34.170Z,97303.63
2023-02-14T14:43:26.119Z,97331.59
2023-02-14T14:45:53.281Z,97401.56
2023-02-14T14:48:29.033Z,97445.50
2023-02-14T14:50:55.466Z,97413.41
2023-02-14T14:53:56.108Z,97325.00
2023-02-14T14:56:27.287Z,97204.78
2023-02-14T14:58:53.798Z,97084.38
2023-02-14T15:01:39.403Z,96996.84
2023-02-14T15:04:16.803Z,97040.75
2023-02-14T15:06:43.513Z,97055.78
2023-02-14T15:09:13.863Z,96977.31
2023-02-14T15:11:59.228Z,96924.31
2023-02-14T15:14:26.203Z,96842.91
2023-02-14T15:16:52.698Z,96768.81
2023-02-14T15:19:37.602Z,96708.41
2023-02-14T15:22:29.651Z,96664.47
2023-02-14T15:24:57.303Z,96611.34
2023-02-14T15:27:25.450Z,96563.06
2023-02-14T15:30:09.777Z,96474.34
2023-02-14T15:32:36.376Z,96412.13
2023-02-14T15:35:04.006Z,96335.66
2023-02-14T15:37:30.482Z,96255.41
2023-02-14T15:39:57.064Z,96174.50
2023-02-14T15:42:32.803Z,96119.19
2023-02-14T15:45:17.779Z,96071.41
2023-02-14T15:47:45.416Z,96053.53
2023-02-14T15:50:15.908Z,95964.88
2023-02-14T15:52:42.300Z,95919.69
2023-02-14T15:55:09.584Z,95887.13
2023-02-14T15:57:35.932Z,95858.09
2023-02-14T16:00:06.599Z,95841.91
2023-02-14T16:02:37.655Z,95790.47
2023-02-14T16:05:18.502Z,95723.81
2023-02-14T16:08:07.714Z,95661.97
2023-02-14T16:10:35.152Z,95615.88
2023-02-14T16:13:01.737Z,95577.59
2023-02-14T16:15:32.397Z,95580.03
2023-02-14T16:17:59.685Z,95577.47
2023-02-14T16:20:36.254Z,95559.00
2023-02-14T16:23:18.017Z,95508.16
2023-02-14T16:25:44.770Z,95465.50
2023-02-14T16:28:11.151Z,95420.63
2023-02-14T16:30:38.511Z,95387.81
2023-02-14T16:33:06.759Z,95362.13
2023-02-14T16:35:33.195Z,95343.94
2023-02-14T16:37:59.559Z,95321.53
2023-02-14T16:40:26.700Z,95306.91
2023-02-14T16:42:53.194Z,95291.59
2023-02-14T16:45:20.569Z,95284.22
2023-02-14T16:47:47.495Z,95315.03
2023-02-14T16:50:14.006Z,95287.13
2023-02-14T16:52:40.369Z,95281.53
2023-02-14T16:55:10.675Z,95302.06
2023-02-14T16:57:40.572Z,95333.13
2023-02-14T17:00:07.609Z,95389.56
2023-02-14T17:02:34.648Z,95449.13
2023-02-14T17:05:01.034Z,95539.22
2023-02-14T17:07:28.589Z,95632.72
2023-02-14T17:09:57.600Z,95733.84
2023-02-14T17:12:26.628Z,95829.38
2023-02-14T17:14:53.978Z,95877.94
2023-02-14T17:17:20.445Z,95927.00
2023-02-14T17:19:46.798Z,95872.81
2023-02-14T17:22:13.490Z,95834.16
2023-02-14T17:24:40.769Z,95794.56
2023-02-14T17:27:08.460Z,95731.25
2023-02-14T17:29:34.808Z,95621.28
2023-02-14T17:32:01.334Z,95546.34
2023-02-14T17:34:32.045Z,95485.31
2023-02-14T17:36:58.756Z,95427.31
2023-02-14T17:39:25.152Z,95343.94
2023-02-14T17:41:53.033Z,95276.56
2023-02-14T17:44:19.370Z,95228.00
2023-02-14T17:46:45.908Z,95084.19
2023-02-14T17:49:12.322Z,94935.56
2023-02-14T17:51:38.672Z,94828.94
2023-02-14T17:54:05.125Z,94722.91
2023-02-14T17:56:31.494Z,94571.66
2023-02-14T17:58:57.896Z,94457.69
2023-02-14T18:01:26.338Z,94374.78
2023-02-14T18:03:55.717Z,94310.03
2023-02-14T18:06:22.100Z,94283.81
2023-02-14T18:08:49.842Z,94246.25
2023-02-14T18:11:16.879Z,94221.13
2023-02-14T18:13:44.489Z,94221.13
2023-02-14T18:16:12.859Z,94237.16
2023-02-14T18:18:39.257Z,94261.09
2023-02-14T18:21:07.170Z,94302.34
2023-02-14T18:23:33.771Z,94365.94
2023-02-14T18:26:04.073Z,94424.31
2023-02-14T18:28:30.540Z,94473.66
2023-02-14T18:31:02.730Z,94492.44
2023-02-14T18:33:29.251Z,94544.50
2023-02-14T18:35:55.584Z,94604.50
2023-02-14T18:38:21.963Z,94649.44
2023-02-14T18:40:48.312Z,94699.09
2023-02-14T18:43:14.670Z,94709.94
2023-02-14T18:45:41.104Z,94742.41
2023-02-14T18:48:09.026Z,94791.09
2023-02-14T18:50:35.402Z,94823.41
2023-02-14T18:53:01.854Z,94874.91
2023-02-14T18:55:28.821Z,94957.97
2023-02-14T18:57:55.224Z,95023.91
2023-02-14T19:00:22.139Z,95080.09
2023-02-14T19:02:48.588Z,95156.88
2023-02-14T19:05:14.962Z,95220.81
2023-02-14T19:07:41.355Z,95247.69
2023-02-14T19:10:08.487Z,95246.59
2023-02-14T19:12:34.824Z,95295.31
2023-02-14T19:15:01.515Z,95327.81
2023-02-14T19:17:28.016Z,95376.94
2023-02-14T19:19:54.456Z,95438.56
2023-02-14T19:22:20.962Z,95492.31
2023-02-14T19:24:48.209Z,95582.59
2023-02-14T19:27:14.636Z,95653.00
2023-02-14T19:29:41.118Z,95742.66
2023-02-14T19:32:07.592Z,95811.13
2023-02-14T19:34:34.640Z,95869.91
2023-02-14T19:37:02.245Z,95896.91
2023-02-14T19:39:32.016Z,95932.78
2023-02-14T19:41:58.524Z,95995.25
2023-02-14T19:44:25.835Z,96063.06
2023-02-14T19:46:54.310Z,96102.88
2023-02-14T19:49:21.054Z,96162.69
2023-02-14T19:51:48.783Z,96224.66
2023-02-14T19:54:15.715Z,96268.47
2023-02-14T19:56:44.262Z,96279.44
2023-02-14T19:59:11.205Z,96281.91
2023-02-14T20:01:51.387Z,96293.28
2023-02-14T20:04:22.848Z,96312.47
2023-02-14T20:06:49.332Z,96366.56
2023-02-14T20:09:16.053Z,96417.56
2023-02-14T20:11:50.251Z,96440.94
2023-02-14T20:14:20.124Z,96461.75
2023-02-14T20:16:46.748Z,96504.34
2023-02-14T20:19:16.503Z,96539.94
2023-02-14T20:21:44.229Z,96568.72
2023-02-14T20:24:12.253Z,96581.44
2023-02-14T20:26:39.519Z,96595.44
2023-02-14T20:29:06.333Z,96629.25
2023-02-14T20:31:33.402Z,96649.25
2023-02-14T20:33:59.985Z,96683.06
2023-02-14T20:36:26.480Z,96705.63
2023-02-14T20:38:56.374Z,96728.19
2023-02-14T20:41:23.044Z,96748.09
2023-02-14T20:43:49.384Z,96759.31
2023-02-14T20:46:15.747Z,96775.81
2023-02-14T20:48:42.312Z,96791.47
2023-02-14T20:51:10.657Z,96809.69
2023-02-14T20:53:37.052Z,96817.44
2023-02-14T20:56:03.612Z,96853.38
2023-02-14T20:58:30.930Z,96860.25
2023-02-14T21:01:04.410Z,96875.16
2023-02-14T21:03:32.198Z,96880.63
2023-02-14T21:05:58.625Z,96887.59
2023-02-14T21:08:25.028Z,96896.25
2023-02-14T21:10:51.391Z,96929.31
2023-02-14T21:13:17.732Z,96946.63
2023-02-14T21:15:44.322Z,96943.25
2023-02-14T21:18:10.696Z,96946.00
2023-02-14T21:20:37.069Z,96943.44
2023-02-14T21:23:03.438Z,96920.84
2023-02-14T21:25:31.662Z,96914.81
2023-02-14T21:27:58.113Z,96911.44
2023-02-14T21:30:24.633Z,96919.31
2023-02-14T21:32:50.993Z,96926.28
2023-02-14T21:35:17.363Z,96925.38
2023-02-14T21:37:43.896Z,96936.59
2023-02-14T21:40:10.503Z,96951.31
2023-02-14T21:42:36.905Z,96948.88
2023-02-14T21:45:21.903Z,96963.53
2023-02-14T21:48:08.257Z,96952.38
2023-02-14T21:50:34.693Z,96966.91
2023-02-14T21:53:01.177Z,96980.88
2023-02-14T21:55:27.501Z,96984.34
2023-02-14T21:57:53.990Z,96993.75
2023-02-14T22:00:22.536Z,96996.44
2023-02-14T22:02:49.052Z,97017.19
2023-02-14T22:05:15.523Z,97032.78
2023-02-14T22:07:42.007Z,97026.66
2023-02-14T22:10:08.649Z,97016.22
2023-02-14T22:12:35.018Z,97018.84
2023-02-14T22:15:01.407Z,97021.66
2023-02-14T22:17:27.921Z,97028.63
2023-02-14T22:19:54.556Z,97051.06
2023-02-14T22:22:20.923Z,97049.25
2023-02-14T22:24:47.263Z,97024.19
2023-02-14T22:27:13.802Z,97013.88
2023-02-14T22:29:40.153Z,97024.25
2023-02-14T22:32:06.602Z,97043.59
2023-02-14T22:34:33.021Z,97056.66
2023-02-14T22:36:59.465Z,97060.03
2023-02-14T22:39:25.814Z,97059.28
2023-02-14T22:41:52.371Z,97058.59
2023-02-14T22:44:18.696Z,97042.16
2023-02-14T22:46:45.092Z,97029.91
2023-02-14T22:49:11.556Z,97035.06
2023-02-14T22:51:39.214Z,97039.53
2023-02-14T22:54:07.549Z,97047.31
2023-02-14T22:56:37.046Z,97057.88
2023-02-14T22:59:07.630Z,97064.81
2023-02-14T23:01:34.541Z,97071.69
2023-02-14T23:04:01.888Z,97077.81
2023-02-14T23:06:29.350Z,97089.16
2023-02-14T23:08:55.987Z,97101.22
2023-02-14T23:11:26.716Z,97108.16
2023-02-14T23:14:11.920Z,97126.28
2023-02-14T23:16:57.307Z,97127.34
2023-02-14T23:19:46.920Z,97130.72
2023-02-14T23:22:21.502Z,97159.28
2023-02-14T23:24:48.647Z,97157.47
2023-02-14T23:27:15.248Z,97160.84
2023-02-14T23:29:41.799Z,97148.81
2023-02-14T23:32:08.286Z,97147.03
2023-02-14T23:34:36.213Z,97160.09
2023-02-14T23:37:03.289Z,97161.88
2023-02-14T23:39:32.543Z,97173.97
2023-02-14T23:41:58.926Z,97196.50
2023-02-14T23:44:26.508Z,97218.13
2023-02-14T23:46:55.636Z,97232.78
2023-02-14T23:49:22.367Z,97245.81
2023-02-14T23:51:50.156Z,97256.13
2023-02-14T23:54:16.996Z,97256.25
2023-02-14T23:56:43.676Z,97274.38
2023-02-14T23:59:10.294Z,97293.63
